KEAN/EAN METAR and TAF weather

Enter ICAO airport designator
Station Type Date Time Source
KEAN METAR 2021/07/29 03:35 UTC NOAA

KEAN 290335Z AUTO 05007KT 10SM CLR 28/09 A3015 RMK AO2 T02830087


Station Type Date Time Source
KEAN Decoded METAR 2021/07/29 03:35 UTC NOAA

Station name not available
Jul 28, 2021 - 11:35 PM EDT / 2021.07.29 0335 UTC
Wind: from the NE (050 degrees) at 8 MPH (7 KT):0
Visibility: 10 mile(s):0
Sky conditions: clear
Temperature: 82.9 F (28.3 C)
Dew Point: 47.7 F (8.7 C)
Relative Humidity: 29%
Pressure (altimeter): 30.15 in. Hg (1020 hPa)
ob: KEAN 290335Z AUTO 05007KT 10SM CLR 28/09 A3015 RMK AO2 T02830087
cycle: 3

Station Type Date Time Source
KEAN TAF UTC NOAA

Error!

Example: see airport list